sensor_id;sensor_type;location;lat;lon;timestamp;temperature;humidity
9311;DHT22;4694;52.464;13.480;2024-01-16T00:00:12;0.90;99.90
9311;DHT22;4694;52.464;13.480;2024-01-16T00:02:40;0.90;99.90
9311;DHT22;4694;52.464;13.480;2024-01-16T00:05:07;0.90;99.90
9311;DHT22;4694;52.464;13.480;2024-01-16T00:07:38;0.90;99.90
9311;DHT22;4694;52.464;13.480;2024-01-16T00:10:06;0.90;99.90
9311;DHT22;4694;52.464;13.480;2024-01-16T00:12:33;0.90;99.90
9311;DHT22;4694;52.464;13.480;2024-01-16T00:15:00;1.00;99.90
9311;DHT22;4694;52.464;13.480;2024-01-16T00:17:27;0.90;99.90
9311;DHT22;4694;52.464;13.480;2024-01-16T00:19:54;0.90;99.90
9311;DHT22;4694;52.464;13.480;2024-01-16T00:22:21;0.80;99.90
9311;DHT22;4694;52.464;13.480;2024-01-16T00:24:48;0.80;99.90
9311;DHT22;4694;52.464;13.480;2024-01-16T00:27:14;0.70;99.90
9311;DHT22;4694;52.464;13.480;2024-01-16T00:29:42;0.70;99.90
9311;DHT22;4694;52.464;13.480;2024-01-16T00:32:09;0.70;99.90
9311;DHT22;4694;52.464;13.480;2024-01-16T00:34:36;0.70;99.90
9311;DHT22;4694;52.464;13.480;2024-01-16T00:37:04;0.60;99.90
9311;DHT22;4694;52.464;13.480;2024-01-16T00:39:31;0.60;99.90
9311;DHT22;4694;52.464;13.480;2024-01-16T00:41:58;0.60;99.90
9311;DHT22;4694;52.464;13.480;2024-01-16T00:44:25;0.50;99.90
9311;DHT22;4694;52.464;13.480;2024-01-16T00:46:52;0.50;99.90
9311;DHT22;4694;52.464;13.480;2024-01-16T00:49:18;0.50;99.90
9311;DHT22;4694;52.464;13.480;2024-01-16T00:51:45;0.50;99.90
9311;DHT22;4694;52.464;13.480;2024-01-16T00:54:14;0.50;99.90
9311;DHT22;4694;52.464;13.480;2024-01-16T00:56:42;0.50;99.90
9311;DHT22;4694;52.464;13.480;2024-01-16T00:59:09;0.60;99.90
9311;DHT22;4694;52.464;13.480;2024-01-16T01:01:37;0.60;99.90
9311;DHT22;4694;52.464;13.480;2024-01-16T01:04:04;0.60;99.90
9311;DHT22;4694;52.464;13.480;2024-01-16T01:06:31;0.50;99.90
9311;DHT22;4694;52.464;13.480;2024-01-16T01:08:57;0.50;99.90
9311;DHT22;4694;52.464;13.480;2024-01-16T01:11:26;0.40;99.90
9311;DHT22;4694;52.464;13.480;2024-01-16T01:13:53;0.40;99.90
9311;DHT22;4694;52.464;13.480;2024-01-16T01:16:19;0.40;99.90
9311;DHT22;4694;52.464;13.480;2024-01-16T01:18:46;0.30;99.90
9311;DHT22;4694;52.464;13.480;2024-01-16T01:21:13;0.30;99.90
9311;DHT22;4694;52.464;13.480;2024-01-16T01:23:40;0.30;99.90
9311;DHT22;4694;52.464;13.480;2024-01-16T01:26:06;0.40;99.90
9311;DHT22;4694;52.464;13.480;2024-01-16T01:28:34;0.40;99.90
9311;DHT22;4694;52.464;13.480;2024-01-16T01:31:02;0.40;99.90
9311;DHT22;4694;52.464;13.480;2024-01-16T01:33:29;0.40;99.90
9311;DHT22;4694;52.464;13.480;2024-01-16T01:35:56;0.30;99.90
9311;DHT22;4694;52.464;13.480;2024-01-16T01:38:22;0.20;99.90
9311;DHT22;4694;52.464;13.480;2024-01-16T01:40:49;0.10;99.90
9311;DHT22;4694;52.464;13.480;2024-01-16T01:43:20;0.00;99.90
9311;DHT22;4694;52.464;13.480;2024-01-16T01:46:04;0.00;99.90
9311;DHT22;4694;52.464;13.480;2024-01-16T01:48:35;0.00;99.90
9311;DHT22;4694;52.464;13.480;2024-01-16T01:51:03;0.00;99.90
9311;DHT22;4694;52.464;13.480;2024-01-16T01:53:31;-0.10;99.90
9311;DHT22;4694;52.464;13.480;2024-01-16T01:55:59;-0.10;99.90
9311;DHT22;4694;52.464;13.480;2024-01-16T01:58:27;-0.20;99.90
9311;DHT22;4694;52.464;13.480;2024-01-16T02:00:55;-0.30;99.90
9311;DHT22;4694;52.464;13.480;2024-01-16T02:03:23;-0.30;99.90
9311;DHT22;4694;52.464;13.480;2024-01-16T02:05:52;-0.40;99.90
9311;DHT22;4694;52.464;13.480;2024-01-16T02:08:19;-0.50;99.90
9311;DHT22;4694;52.464;13.480;2024-01-16T02:10:47;-0.50;99.90
9311;DHT22;4694;52.464;13.480;2024-01-16T02:13:16;-0.60;99.90
9311;DHT22;4694;52.464;13.480;2024-01-16T02:15:44;-0.60;99.90
9311;DHT22;4694;52.464;13.480;2024-01-16T02:18:12;-0.60;99.90
9311;DHT22;4694;52.464;13.480;2024-01-16T02:20:38;-0.70;99.90
9311;DHT22;4694;52.464;13.480;2024-01-16T02:23:05;-0.70;99.90
9311;DHT22;4694;52.464;13.480;2024-01-16T02:25:35;-0.80;99.90
9311;DHT22;4694;52.464;13.480;2024-01-16T02:28:02;-0.80;99.90
9311;DHT22;4694;52.464;13.480;2024-01-16T02:30:29;-0.90;99.90
9311;DHT22;4694;52.464;13.480;2024-01-16T02:32:56;-0.90;99.90
9311;DHT22;4694;52.464;13.480;2024-01-16T02:35:22;-0.90;99.90
9311;DHT22;4694;52.464;13.480;2024-01-16T02:37:49;-0.90;99.90
9311;DHT22;4694;52.464;13.480;2024-01-16T02:40:16;-0.90;99.90
9311;DHT22;4694;52.464;13.480;2024-01-16T02:42:44;-0.90;99.90
9311;DHT22;4694;52.464;13.480;2024-01-16T02:45:11;-0.90;99.90
9311;DHT22;4694;52.464;13.480;2024-01-16T02:47:38;-0.90;99.90
9311;DHT22;4694;52.464;13.480;2024-01-16T02:50:06;-0.90;99.90
9311;DHT22;4694;52.464;13.480;2024-01-16T02:52:35;-0.90;99.90
9311;DHT22;4694;52.464;13.480;2024-01-16T02:55:02;-0.90;99.90
9311;DHT22;4694;52.464;13.480;2024-01-16T02:57:30;-0.90;99.90
9311;DHT22;4694;52.464;13.480;2024-01-16T02:59:58;-0.90;99.90
9311;DHT22;4694;52.464;13.480;2024-01-16T03:02:24;-0.90;99.90
9311;DHT22;4694;52.464;13.480;2024-01-16T03:04:51;-0.90;99.90
9311;DHT22;4694;52.464;13.480;2024-01-16T03:07:18;-0.90;99.90
9311;DHT22;4694;52.464;13.480;2024-01-16T03:09:45;-1.00;99.90
9311;DHT22;4694;52.464;13.480;2024-01-16T03:12:11;-1.10;99.90
9311;DHT22;4694;52.464;13.480;2024-01-16T03:14:38;-1.20;99.90
9311;DHT22;4694;52.464;13.480;2024-01-16T03:17:06;-1.20;99.90
9311;DHT22;4694;52.464;13.480;2024-01-16T03:19:33;-1.20;99.90
9311;DHT22;4694;52.464;13.480;2024-01-16T03:22:00;-1.30;99.90
9311;DHT22;4694;52.464;13.480;2024-01-16T03:24:26;-1.30;99.90
9311;DHT22;4694;52.464;13.480;2024-01-16T03:26:53;-1.30;99.90
9311;DHT22;4694;52.464;13.480;2024-01-16T03:29:19;-1.30;99.90
9311;DHT22;4694;52.464;13.480;2024-01-16T03:31:46;-1.30;99.90
9311;DHT22;4694;52.464;13.480;2024-01-16T03:34:14;-1.30;99.90
9311;DHT22;4694;52.464;13.480;2024-01-16T03:36:41;-1.30;99.90
9311;DHT22;4694;52.464;13.480;2024-01-16T03:39:08;-1.20;99.90
9311;DHT22;4694;52.464;13.480;2024-01-16T03:41:35;-1.20;99.90
9311;DHT22;4694;52.464;13.480;2024-01-16T03:44:02;-1.20;99.90
9311;DHT22;4694;52.464;13.480;2024-01-16T03:46:28;-1.10;99.90
9311;DHT22;4694;52.464;13.480;2024-01-16T03:48:55;-1.10;99.90
9311;DHT22;4694;52.464;13.480;2024-01-16T03:51:23;-1.00;99.90
9311;DHT22;4694;52.464;13.480;2024-01-16T03:53:50;-1.00;99.90
9311;DHT22;4694;52.464;13.480;2024-01-16T03:56:17;-1.00;99.90
9311;DHT22;4694;52.464;13.480;2024-01-16T03:58:43;-1.00;99.90
9311;DHT22;4694;52.464;13.480;2024-01-16T04:01:10;-0.90;99.90
9311;DHT22;4694;52.464;13.480;2024-01-16T04:03:38;-0.90;99.90
9311;DHT22;4694;52.464;13.480;2024-01-16T04:06:14;-0.90;99.90
9311;DHT22;4694;52.464;13.480;2024-01-16T04:08:42;-0.80;99.90
9311;DHT22;4694;52.464;13.480;2024-01-16T04:11:11;-0.80;99.90
9311;DHT22;4694;52.464;13.480;2024-01-16T04:13:38;-0.80;99.90
9311;DHT22;4694;52.464;13.480;2024-01-16T04:16:05;-0.70;99.90
9311;DHT22;4694;52.464;13.480;2024-01-16T04:18:35;-0.70;99.90
9311;DHT22;4694;52.464;13.480;2024-01-16T04:21:02;-0.70;99.90
9311;DHT22;4694;52.464;13.480;2024-01-16T04:23:29;-0.70;99.90
9311;DHT22;4694;52.464;13.480;2024-01-16T04:25:57;-0.70;99.90
9311;DHT22;4694;52.464;13.480;2024-01-16T04:28:23;-0.60;99.90
9311;DHT22;4694;52.464;13.480;2024-01-16T04:30:50;-0.60;99.90
9311;DHT22;4694;52.464;13.480;2024-01-16T04:33:17;-0.60;99.90
9311;DHT22;4694;52.464;13.480;2024-01-16T04:35:44;-0.50;99.90
9311;DHT22;4694;52.464;13.480;2024-01-16T04:38:10;-0.40;99.90
9311;DHT22;4694;52.464;13.480;2024-01-16T04:40:37;-0.40;99.90
9311;DHT22;4694;52.464;13.480;2024-01-16T04:43:05;-0.30;99.90
9311;DHT22;4694;52.464;13.480;2024-01-16T04:45:31;-0.40;99.90
9311;DHT22;4694;52.464;13.480;2024-01-16T04:47:58;-0.40;99.90
9311;DHT22;4694;52.464;13.480;2024-01-16T04:50:25;-0.30;99.90
9311;DHT22;4694;52.464;13.480;2024-01-16T04:52:56;-0.30;99.90
9311;DHT22;4694;52.464;13.480;2024-01-16T04:55:25;-0.40;99.90
9311;DHT22;4694;52.464;13.480;2024-01-16T04:57:51;-0.40;99.90
9311;DHT22;4694;52.464;13.480;2024-01-16T05:00:20;-0.40;99.90
9311;DHT22;4694;52.464;13.480;2024-01-16T05:02:46;-0.40;99.90
9311;DHT22;4694;52.464;13.480;2024-01-16T05:05:13;-0.40;99.90
9311;DHT22;4694;52.464;13.480;2024-01-16T05:07:40;-0.40;99.90
9311;DHT22;4694;52.464;13.480;2024-01-16T05:10:10;-0.30;99.90
9311;DHT22;4694;52.464;13.480;2024-01-16T05:12:38;-0.40;99.90
9311;DHT22;4694;52.464;13.480;2024-01-16T05:15:05;-0.40;99.90
9311;DHT22;4694;52.464;13.480;2024-01-16T05:17:33;-0.40;99.90
9311;DHT22;4694;52.464;13.480;2024-01-16T05:20:03;-0.40;99.90
9311;DHT22;4694;52.464;13.480;2024-01-16T05:22:30;-0.40;99.90
9311;DHT22;4694;52.464;13.480;2024-01-16T05:24:57;-0.40;99.90
9311;DHT22;4694;52.464;13.480;2024-01-16T05:27:24;-0.40;99.90
9311;DHT22;4694;52.464;13.480;2024-01-16T05:29:51;-0.40;99.90
9311;DHT22;4694;52.464;13.480;2024-01-16T05:32:17;-0.40;99.90
9311;DHT22;4694;52.464;13.480;2024-01-16T05:34:45;-0.50;99.90
9311;DHT22;4694;52.464;13.480;2024-01-16T05:37:12;-0.50;99.90
9311;DHT22;4694;52.464;13.480;2024-01-16T05:39:39;-0.50;99.90
9311;DHT22;4694;52.464;13.480;2024-01-16T05:42:05;-0.60;99.90
9311;DHT22;4694;52.464;13.480;2024-01-16T05:44:32;-0.70;99.90
9311;DHT22;4694;52.464;13.480;2024-01-16T05:46:59;-0.70;99.90
9311;DHT22;4694;52.464;13.480;2024-01-16T05:49:25;-0.70;99.90
9311;DHT22;4694;52.464;13.480;2024-01-16T05:51:54;-0.70;99.90
9311;DHT22;4694;52.464;13.480;2024-01-16T05:54:20;-0.70;99.90
9311;DHT22;4694;52.464;13.480;2024-01-16T05:56:47;-0.70;99.90
9311;DHT22;4694;52.464;13.480;2024-01-16T05:59:15;-0.70;99.90
9311;DHT22;4694;52.464;13.480;2024-01-16T06:01:42;-0.70;99.90
9311;DHT22;4694;52.464;13.480;2024-01-16T06:04:08;-0.70;99.90
9311;DHT22;4694;52.464;13.480;2024-01-16T06:06:35;-0.70;99.90
9311;DHT22;4694;52.464;13.480;2024-01-16T06:09:03;-0.70;99.90
9311;DHT22;4694;52.464;13.480;2024-01-16T06:11:31;-0.70;99.90
9311;DHT22;4694;52.464;13.480;2024-01-16T06:13:58;-0.80;99.90
9311;DHT22;4694;52.464;13.480;2024-01-16T06:16:25;-0.80;99.90
9311;DHT22;4694;52.464;13.480;2024-01-16T06:18:52;-0.80;99.90
9311;DHT22;4694;52.464;13.480;2024-01-16T06:21:19;-0.80;99.90
9311;DHT22;4694;52.464;13.480;2024-01-16T06:23:45;-0.90;99.90
9311;DHT22;4694;52.464;13.480;2024-01-16T06:26:13;-0.90;99.90
9311;DHT22;4694;52.464;13.480;2024-01-16T06:39:25;-1.10;99.90
9311;DHT22;4694;52.464;13.480;2024-01-16T06:41:53;-1.20;99.90
9311;DHT22;4694;52.464;13.480;2024-01-16T06:44:19;-1.20;99.90
9311;DHT22;4694;52.464;13.480;2024-01-16T06:46:46;-1.30;99.90
9311;DHT22;4694;52.464;13.480;2024-01-16T06:49:13;-1.30;99.90
9311;DHT22;4694;52.464;13.480;2024-01-16T06:51:39;-1.30;99.90
9311;DHT22;4694;52.464;13.480;2024-01-16T06:54:06;-1.40;99.90
9311;DHT22;4694;52.464;13.480;2024-01-16T06:56:32;-1.30;99.90
9311;DHT22;4694;52.464;13.480;2024-01-16T06:59:00;-1.30;99.90
9311;DHT22;4694;52.464;13.480;2024-01-16T07:01:27;-1.30;99.90
9311;DHT22;4694;52.464;13.480;2024-01-16T07:03:54;-1.20;99.90
9311;DHT22;4694;52.464;13.480;2024-01-16T07:06:20;-1.20;99.90
9311;DHT22;4694;52.464;13.480;2024-01-16T07:08:47;-1.10;99.90
9311;DHT22;4694;52.464;13.480;2024-01-16T07:11:13;-1.10;99.90
9311;DHT22;4694;52.464;13.480;2024-01-16T07:13:40;-1.00;99.90
9311;DHT22;4694;52.464;13.480;2024-01-16T07:16:10;-0.90;99.90
9311;DHT22;4694;52.464;13.480;2024-01-16T07:18:37;-0.90;99.90
9311;DHT22;4694;52.464;13.480;2024-01-16T07:21:04;-0.90;99.90
9311;DHT22;4694;52.464;13.480;2024-01-16T07:23:31;-0.90;99.90
9311;DHT22;4694;52.464;13.480;2024-01-16T07:25:57;-0.90;99.90
9311;DHT22;4694;52.464;13.480;2024-01-16T07:28:24;-0.80;99.90
9311;DHT22;4694;52.464;13.480;2024-01-16T07:30:53;-0.80;99.90
9311;DHT22;4694;52.464;13.480;2024-01-16T07:33:23;-0.70;99.90
9311;DHT22;4694;52.464;13.480;2024-01-16T07:35:50;-0.60;99.90
9311;DHT22;4694;52.464;13.480;2024-01-16T07:38:17;-0.60;99.90
9311;DHT22;4694;52.464;13.480;2024-01-16T07:40:44;-0.60;99.90
9311;DHT22;4694;52.464;13.480;2024-01-16T07:43:11;-0.50;99.90
9311;DHT22;4694;52.464;13.480;2024-01-16T07:45:37;-0.50;99.90
9311;DHT22;4694;52.464;13.480;2024-01-16T07:48:04;-0.50;99.90
9311;DHT22;4694;52.464;13.480;2024-01-16T07:50:32;-0.50;99.90
9311;DHT22;4694;52.464;13.480;2024-01-16T07:52:59;-0.50;99.90
9311;DHT22;4694;52.464;13.480;2024-01-16T07:55:25;-0.50;99.90
9311;DHT22;4694;52.464;13.480;2024-01-16T07:57:53;-0.50;99.90
9311;DHT22;4694;52.464;13.480;2024-01-16T08:00:21;-0.40;99.90
9311;DHT22;4694;52.464;13.480;2024-01-16T08:02:47;-0.40;99.90
9311;DHT22;4694;52.464;13.480;2024-01-16T08:05:14;-0.40;99.90
9311;DHT22;4694;52.464;13.480;2024-01-16T08:07:43;-0.40;99.90
9311;DHT22;4694;52.464;13.480;2024-01-16T08:10:10;-0.40;99.90
9311;DHT22;4694;52.464;13.480;2024-01-16T08:12:37;-0.40;99.90
9311;DHT22;4694;52.464;13.480;2024-01-16T08:15:04;-0.30;99.90
9311;DHT22;4694;52.464;13.480;2024-01-16T08:17:32;-0.20;99.90
9311;DHT22;4694;52.464;13.480;2024-01-16T08:19:59;-0.20;99.90
9311;DHT22;4694;52.464;13.480;2024-01-16T08:22:26;-0.20;99.90
9311;DHT22;4694;52.464;13.480;2024-01-16T08:24:54;-0.20;99.90
9311;DHT22;4694;52.464;13.480;2024-01-16T08:27:20;-0.20;99.90
9311;DHT22;4694;52.464;13.480;2024-01-16T08:29:47;-0.10;99.90
9311;DHT22;4694;52.464;13.480;2024-01-16T08:32:15;-0.10;99.90
9311;DHT22;4694;52.464;13.480;2024-01-16T08:34:42;-0.10;99.90
9311;DHT22;4694;52.464;13.480;2024-01-16T08:37:08;0.00;99.90
9311;DHT22;4694;52.464;13.480;2024-01-16T08:39:35;0.00;99.90
9311;DHT22;4694;52.464;13.480;2024-01-16T08:42:03;0.10;99.90
9311;DHT22;4694;52.464;13.480;2024-01-16T08:44:30;0.10;99.90
9311;DHT22;4694;52.464;13.480;2024-01-16T08:46:56;0.20;99.90
9311;DHT22;4694;52.464;13.480;2024-01-16T08:49:24;0.30;99.90
9311;DHT22;4694;52.464;13.480;2024-01-16T08:51:51;0.30;99.90
9311;DHT22;4694;52.464;13.480;2024-01-16T08:54:18;0.40;99.90
9311;DHT22;4694;52.464;13.480;2024-01-16T08:56:44;0.40;99.90
9311;DHT22;4694;52.464;13.480;2024-01-16T08:59:12;0.40;99.90
9311;DHT22;4694;52.464;13.480;2024-01-16T09:01:39;0.50;99.90
9311;DHT22;4694;52.464;13.480;2024-01-16T09:04:07;0.50;99.90
9311;DHT22;4694;52.464;13.480;2024-01-16T09:06:33;0.60;99.90
9311;DHT22;4694;52.464;13.480;2024-01-16T09:09:00;0.70;99.90
9311;DHT22;4694;52.464;13.480;2024-01-16T09:11:29;0.70;99.90
9311;DHT22;4694;52.464;13.480;2024-01-16T09:13:56;0.70;99.90
9311;DHT22;4694;52.464;13.480;2024-01-16T09:16:24;0.70;99.90
9311;DHT22;4694;52.464;13.480;2024-01-16T09:18:50;0.80;99.90
9311;DHT22;4694;52.464;13.480;2024-01-16T09:21:17;0.80;99.90
9311;DHT22;4694;52.464;13.480;2024-01-16T09:23:43;0.70;99.90
9311;DHT22;4694;52.464;13.480;2024-01-16T09:26:10;0.70;99.90
9311;DHT22;4694;52.464;13.480;2024-01-16T09:28:37;0.80;99.90
9311;DHT22;4694;52.464;13.480;2024-01-16T09:31:05;0.80;99.90
9311;DHT22;4694;52.464;13.480;2024-01-16T09:33:33;0.80;99.90
9311;DHT22;4694;52.464;13.480;2024-01-16T09:36:01;0.70;99.90
9311;DHT22;4694;52.464;13.480;2024-01-16T09:38:28;0.70;99.90
9311;DHT22;4694;52.464;13.480;2024-01-16T09:40:56;0.70;99.90
9311;DHT22;4694;52.464;13.480;2024-01-16T09:43:26;0.70;99.90
9311;DHT22;4694;52.464;13.480;2024-01-16T09:45:54;0.70;99.90
9311;DHT22;4694;52.464;13.480;2024-01-16T09:48:21;0.70;99.90
9311;DHT22;4694;52.464;13.480;2024-01-16T09:50:50;0.80;99.90
9311;DHT22;4694;52.464;13.480;2024-01-16T09:53:17;0.80;99.90
9311;DHT22;4694;52.464;13.480;2024-01-16T09:55:44;0.80;99.90
9311;DHT22;4694;52.464;13.480;2024-01-16T09:58:12;0.80;99.90
9311;DHT22;4694;52.464;13.480;2024-01-16T10:00:41;0.80;99.90
9311;DHT22;4694;52.464;13.480;2024-01-16T10:03:10;0.90;99.90
9311;DHT22;4694;52.464;13.480;2024-01-16T10:05:38;0.90;99.90
9311;DHT22;4694;52.464;13.480;2024-01-16T10:08:06;1.00;99.90
9311;DHT22;4694;52.464;13.480;2024-01-16T10:10:34;1.10;99.90
9311;DHT22;4694;52.464;13.480;2024-01-16T10:13:01;1.10;99.90
9311;DHT22;4694;52.464;13.480;2024-01-16T10:15:28;1.20;99.90
9311;DHT22;4694;52.464;13.480;2024-01-16T10:17:54;1.30;99.90
9311;DHT22;4694;52.464;13.480;2024-01-16T10:20:32;1.40;99.90
9311;DHT22;4694;52.464;13.480;2024-01-16T10:22:58;1.50;99.90
9311;DHT22;4694;52.464;13.480;2024-01-16T10:25:26;1.60;99.90
9311;DHT22;4694;52.464;13.480;2024-01-16T10:28:03;1.70;99.90
9311;DHT22;4694;52.464;13.480;2024-01-16T10:30:30;1.70;99.90
9311;DHT22;4694;52.464;13.480;2024-01-16T10:33:12;1.80;99.90
9311;DHT22;4694;52.464;13.480;2024-01-16T10:35:39;1.90;99.90
9311;DHT22;4694;52.464;13.480;2024-01-16T10:38:06;2.00;99.90
9311;DHT22;4694;52.464;13.480;2024-01-16T10:40:34;2.10;99.90
9311;DHT22;4694;52.464;13.480;2024-01-16T10:43:04;2.30;99.90
9311;DHT22;4694;52.464;13.480;2024-01-16T10:45:31;2.40;99.90
9311;DHT22;4694;52.464;13.480;2024-01-16T10:48:01;2.50;99.90
9311;DHT22;4694;52.464;13.480;2024-01-16T10:50:29;2.60;99.90
9311;DHT22;4694;52.464;13.480;2024-01-16T10:52:57;2.70;99.90
9311;DHT22;4694;52.464;13.480;2024-01-16T10:55:28;2.70;99.90
9311;DHT22;4694;52.464;13.480;2024-01-16T10:57:58;2.70;99.90
9311;DHT22;4694;52.464;13.480;2024-01-16T11:00:27;2.80;99.90
9311;DHT22;4694;52.464;13.480;2024-01-16T11:02:59;2.80;99.90
9311;DHT22;4694;52.464;13.480;2024-01-16T11:05:28;2.80;99.90
9311;DHT22;4694;52.464;13.480;2024-01-16T11:07:58;2.70;99.90
9311;DHT22;4694;52.464;13.480;2024-01-16T11:10:27;2.60;99.90
9311;DHT22;4694;52.464;13.480;2024-01-16T11:12:54;2.50;99.90
9311;DHT22;4694;52.464;13.480;2024-01-16T11:15:24;2.30;99.90
9311;DHT22;4694;52.464;13.480;2024-01-16T11:17:51;2.10;99.90
9311;DHT22;4694;52.464;13.480;2024-01-16T11:20:19;2.00;99.90
9311;DHT22;4694;52.464;13.480;2024-01-16T11:22:47;1.90;99.90
9311;DHT22;4694;52.464;13.480;2024-01-16T11:25:16;1.80;99.90
9311;DHT22;4694;52.464;13.480;2024-01-16T11:27:45;1.70;99.90
9311;DHT22;4694;52.464;13.480;2024-01-16T11:30:30;1.70;99.90
9311;DHT22;4694;52.464;13.480;2024-01-16T11:32:58;1.60;99.90
9311;DHT22;4694;52.464;13.480;2024-01-16T11:35:32;1.60;99.90
9311;DHT22;4694;52.464;13.480;2024-01-16T11:38:04;1.70;99.90
9311;DHT22;4694;52.464;13.480;2024-01-16T11:40:34;1.60;99.90
9311;DHT22;4694;52.464;13.480;2024-01-16T11:43:36;1.60;99.90
9311;DHT22;4694;52.464;13.480;2024-01-16T11:46:05;1.60;99.90
9311;DHT22;4694;52.464;13.480;2024-01-16T11:48:32;1.60;99.90
9311;DHT22;4694;52.464;13.480;2024-01-16T11:50:59;1.60;99.90
9311;DHT22;4694;52.464;13.480;2024-01-16T11:53:34;1.60;99.90
9311;DHT22;4694;52.464;13.480;2024-01-16T11:59:01;1.50;99.90
9311;DHT22;4694;52.464;13.480;2024-01-16T12:01:36;1.40;99.90
9311;DHT22;4694;52.464;13.480;2024-01-16T12:04:03;1.40;99.90
9311;DHT22;4694;52.464;13.480;2024-01-16T12:06:30;1.40;99.90
9311;DHT22;4694;52.464;13.480;2024-01-16T12:09:11;1.40;99.90
9311;DHT22;4694;52.464;13.480;2024-01-16T12:11:39;1.50;99.90
9311;DHT22;4694;52.464;13.480;2024-01-16T12:14:06;1.60;99.90
9311;DHT22;4694;52.464;13.480;2024-01-16T12:16:32;1.60;99.90
9311;DHT22;4694;52.464;13.480;2024-01-16T12:19:05;1.60;99.90
9311;DHT22;4694;52.464;13.480;2024-01-16T12:21:34;1.70;99.90
9311;DHT22;4694;52.464;13.480;2024-01-16T12:24:01;1.80;99.90
9311;DHT22;4694;52.464;13.480;2024-01-16T12:26:29;1.80;99.90
9311;DHT22;4694;52.464;13.480;2024-01-16T12:28:56;1.80;99.90
9311;DHT22;4694;52.464;13.480;2024-01-16T12:31:23;1.80;99.90
9311;DHT22;4694;52.464;13.480;2024-01-16T12:33:50;1.70;99.90
9311;DHT22;4694;52.464;13.480;2024-01-16T12:36:18;1.80;99.90
9311;DHT22;4694;52.464;13.480;2024-01-16T12:38:45;1.80;99.90
9311;DHT22;4694;52.464;13.480;2024-01-16T12:41:11;1.70;99.90
9311;DHT22;4694;52.464;13.480;2024-01-16T12:43:39;1.70;99.90
9311;DHT22;4694;52.464;13.480;2024-01-16T12:46:05;1.70;99.90
9311;DHT22;4694;52.464;13.480;2024-01-16T12:48:32;1.70;99.90
9311;DHT22;4694;52.464;13.480;2024-01-16T12:50:59;1.80;99.90
9311;DHT22;4694;52.464;13.480;2024-01-16T12:53:29;1.70;99.90
9311;DHT22;4694;52.464;13.480;2024-01-16T12:56:01;1.80;99.90
9311;DHT22;4694;52.464;13.480;2024-01-16T12:58:32;1.90;99.90
9311;DHT22;4694;52.464;13.480;2024-01-16T13:01:23;1.90;99.90
9311;DHT22;4694;52.464;13.480;2024-01-16T13:03:50;1.90;99.90
9311;DHT22;4694;52.464;13.480;2024-01-16T13:06:18;2.00;99.90
9311;DHT22;4694;52.464;13.480;2024-01-16T13:08:46;1.90;99.90
9311;DHT22;4694;52.464;13.480;2024-01-16T13:11:15;1.90;99.90
9311;DHT22;4694;52.464;13.480;2024-01-16T13:13:45;1.90;99.90
9311;DHT22;4694;52.464;13.480;2024-01-16T13:16:13;1.80;99.90
9311;DHT22;4694;52.464;13.480;2024-01-16T13:18:40;1.70;99.90
9311;DHT22;4694;52.464;13.480;2024-01-16T13:21:07;1.80;99.90
9311;DHT22;4694;52.464;13.480;2024-01-16T13:23:33;1.90;99.90
9311;DHT22;4694;52.464;13.480;2024-01-16T13:26:01;1.90;99.90
9311;DHT22;4694;52.464;13.480;2024-01-16T13:28:29;2.00;99.90
9311;DHT22;4694;52.464;13.480;2024-01-16T13:30:56;2.10;99.90
9311;DHT22;4694;52.464;13.480;2024-01-16T13:33:24;2.20;99.90
9311;DHT22;4694;52.464;13.480;2024-01-16T13:35:52;2.30;99.90
9311;DHT22;4694;52.464;13.480;2024-01-16T13:38:20;2.40;99.90
9311;DHT22;4694;52.464;13.480;2024-01-16T13:40:47;2.40;99.90
9311;DHT22;4694;52.464;13.480;2024-01-16T13:43:17;2.50;99.90
9311;DHT22;4694;52.464;13.480;2024-01-16T13:45:44;2.50;99.90
9311;DHT22;4694;52.464;13.480;2024-01-16T13:48:14;2.50;99.90
9311;DHT22;4694;52.464;13.480;2024-01-16T13:50:41;2.50;99.90
9311;DHT22;4694;52.464;13.480;2024-01-16T13:53:08;2.40;99.90
9311;DHT22;4694;52.464;13.480;2024-01-16T13:55:34;2.30;99.90
9311;DHT22;4694;52.464;13.480;2024-01-16T13:58:02;2.30;99.90
9311;DHT22;4694;52.464;13.480;2024-01-16T14:00:30;2.20;99.90
9311;DHT22;4694;52.464;13.480;2024-01-16T14:02:57;2.20;99.90
9311;DHT22;4694;52.464;13.480;2024-01-16T14:05:23;2.20;99.90
9311;DHT22;4694;52.464;13.480;2024-01-16T14:07:52;2.20;99.90
9311;DHT22;4694;52.464;13.480;2024-01-16T14:10:21;2.20;99.90
9311;DHT22;4694;52.464;13.480;2024-01-16T14:12:50;2.10;99.90
9311;DHT22;4694;52.464;13.480;2024-01-16T14:15:18;2.10;99.90
9311;DHT22;4694;52.464;13.480;2024-01-16T14:17:48;2.00;99.90
9311;DHT22;4694;52.464;13.480;2024-01-16T14:20:16;2.10;99.90
9311;DHT22;4694;52.464;13.480;2024-01-16T14:22:43;2.00;99.90
9311;DHT22;4694;52.464;13.480;2024-01-16T14:25:11;2.00;99.90
9311;DHT22;4694;52.464;13.480;2024-01-16T14:27:40;2.00;99.90
9311;DHT22;4694;52.464;13.480;2024-01-16T14:30:09;2.00;99.90
9311;DHT22;4694;52.464;13.480;2024-01-16T14:32:36;2.00;99.90
9311;DHT22;4694;52.464;13.480;2024-01-16T14:35:06;2.00;99.90
9311;DHT22;4694;52.464;13.480;2024-01-16T14:37:34;2.00;99.90
9311;DHT22;4694;52.464;13.480;2024-01-16T14:40:02;2.00;99.90
9311;DHT22;4694;52.464;13.480;2024-01-16T14:42:32;2.00;99.90
9311;DHT22;4694;52.464;13.480;2024-01-16T14:45:00;2.00;99.90
9311;DHT22;4694;52.464;13.480;2024-01-16T14:47:26;2.00;99.90
9311;DHT22;4694;52.464;13.480;2024-01-16T14:49:53;2.00;99.90
9311;DHT22;4694;52.464;13.480;2024-01-16T14:52:22;2.00;99.90
9311;DHT22;4694;52.464;13.480;2024-01-16T14:54:48;2.00;99.90
9311;DHT22;4694;52.464;13.480;2024-01-16T14:57:16;2.00;99.90
9311;DHT22;4694;52.464;13.480;2024-01-16T14:59:43;2.00;99.90
9311;DHT22;4694;52.464;13.480;2024-01-16T15:02:10;2.00;99.90
9311;DHT22;4694;52.464;13.480;2024-01-16T15:04:39;2.00;99.90
9311;DHT22;4694;52.464;13.480;2024-01-16T15:07:05;2.00;99.90
9311;DHT22;4694;52.464;13.480;2024-01-16T15:09:33;2.00;99.90
9311;DHT22;4694;52.464;13.480;2024-01-16T15:12:04;1.90;99.90
9311;DHT22;4694;52.464;13.480;2024-01-16T15:14:30;1.90;99.90
9311;DHT22;4694;52.464;13.480;2024-01-16T15:16:57;1.80;99.90
9311;DHT22;4694;52.464;13.480;2024-01-16T15:19:24;1.80;99.90
9311;DHT22;4694;52.464;13.480;2024-01-16T15:21:50;1.80;99.90
9311;DHT22;4694;52.464;13.480;2024-01-16T15:24:17;1.70;99.90
9311;DHT22;4694;52.464;13.480;2024-01-16T15:26:52;1.60;99.90
9311;DHT22;4694;52.464;13.480;2024-01-16T15:29:19;1.50;99.90
9311;DHT22;4694;52.464;13.480;2024-01-16T15:31:46;1.50;99.90
9311;DHT22;4694;52.464;13.480;2024-01-16T15:34:13;1.40;99.90
9311;DHT22;4694;52.464;13.480;2024-01-16T15:36:39;1.30;99.90
9311;DHT22;4694;52.464;13.480;2024-01-16T15:39:06;1.30;99.90
9311;DHT22;4694;52.464;13.480;2024-01-16T15:41:33;1.20;99.90
9311;DHT22;4694;52.464;13.480;2024-01-16T15:44:01;1.30;99.90
9311;DHT22;4694;52.464;13.480;2024-01-16T15:46:28;1.20;99.90
9311;DHT22;4694;52.464;13.480;2024-01-16T15:48:54;1.20;99.90
9311;DHT22;4694;52.464;13.480;2024-01-16T15:51:21;1.20;99.90
9311;DHT22;4694;52.464;13.480;2024-01-16T15:53:48;1.20;99.90
9311;DHT22;4694;52.464;13.480;2024-01-16T15:56:15;1.20;99.90
9311;DHT22;4694;52.464;13.480;2024-01-16T15:58:41;1.30;99.90
9311;DHT22;4694;52.464;13.480;2024-01-16T16:01:09;1.30;99.90
9311;DHT22;4694;52.464;13.480;2024-01-16T16:03:36;1.30;99.90
9311;DHT22;4694;52.464;13.480;2024-01-16T16:06:03;1.20;99.90
9311;DHT22;4694;52.464;13.480;2024-01-16T16:08:30;1.20;99.90
9311;DHT22;4694;52.464;13.480;2024-01-16T16:10:56;1.20;99.90